createdAt,value
2023-01-01T00:00:08.110Z,47.63
2023-01-01T00:03:15.527Z,47.84
2023-01-01T00:06:19.343Z,47.84
2023-01-01T00:09:39.901Z,48.08
2023-01-01T00:12:43.405Z,48.77
2023-01-01T00:15:46.780Z,48.22
2023-01-01T00:18:51.875Z,48.16
2023-01-01T00:21:55.574Z,48.55
2023-01-01T00:24:59.045Z,47.83
2023-01-01T00:28:05.146Z,48.80
2023-01-01T00:31:09.533Z,48.03
2023-01-01T00:34:14.907Z,48.21
2023-01-01T00:37:18.486Z,47.94
2023-01-01T00:40:22.002Z,48.06
2023-01-01T00:43:25.919Z,48.11
2023-01-01T00:46:29.260Z,47.94
2023-01-01T00:49:34.297Z,48.21
2023-01-01T00:52:37.743Z,48.64
2023-01-01T00:55:41.684Z,48.70
2023-01-01T00:58:45.610Z,49.03
2023-01-01T01:02:04.599Z,49.10
2023-01-01T01:05:10.996Z,49.04
2023-01-01T01:08:14.480Z,49.06
2023-01-01T01:11:22.208Z,49.07
2023-01-01T01:14:25.754Z,49.27
2023-01-01T01:17:29.591Z,49.34
2023-01-01T01:20:34.492Z,49.16
2023-01-01T01:23:38.852Z,49.45
2023-01-01T01:26:43.019Z,49.86
2023-01-01T01:29:46.573Z,49.28
2023-01-01T01:32:50.120Z,49.14
2023-01-01T01:35:55.967Z,49.41
2023-01-01T01:39:01.999Z,49.52
2023-01-01T01:42:06.531Z,49.58
2023-01-01T01:45:13.573Z,49.33
2023-01-01T01:48:18.159Z,49.06
2023-01-01T01:51:29.696Z,49.52
2023-01-01T01:54:33.194Z,49.57
2023-01-01T01:57:40.232Z,49.35
2023-01-01T02:00:44.022Z,49.66
2023-01-01T02:03:58.263Z,49.08
2023-01-01T02:07:03.126Z,48.82
2023-01-01T02:10:07.637Z,49.43
2023-01-01T02:13:11.561Z,49.50
2023-01-01T02:16:23.665Z,49.19
2023-01-01T02:19:45.071Z,49.15
2023-01-01T02:23:25.880Z,48.73
2023-01-01T02:26:54.282Z,48.93
2023-01-01T02:30:05.844Z,48.98
2023-01-01T02:33:15.140Z,48.48
2023-01-01T02:36:23.136Z,49.00
2023-01-01T02:39:34.730Z,49.02
2023-01-01T02:42:38.486Z,48.45
2023-01-01T02:45:43.658Z,48.85
2023-01-01T02:48:50.564Z,48.36
2023-01-01T02:52:07.081Z,48.29
2023-01-01T02:55:28.097Z,48.96
2023-01-01T02:59:00.818Z,49.18
2023-01-01T03:02:21.878Z,48.78
2023-01-01T03:05:59.831Z,48.94
2023-01-01T03:09:16.218Z,49.17
2023-01-01T03:12:40.029Z,48.82
2023-01-01T03:15:59.841Z,48.90
2023-01-01T03:19:16.495Z,48.66
2023-01-01T03:22:26.035Z,48.59
2023-01-01T03:25:35.276Z,48.20
2023-01-01T03:28:47.491Z,48.91
2023-01-01T03:31:57.918Z,48.36
2023-01-01T03:35:04.227Z,48.72
2023-01-01T03:38:14.877Z,48.00
2023-01-01T03:41:31.735Z,48.51
2023-01-01T03:44:39.597Z,48.64
2023-01-01T03:47:44.600Z,48.88
2023-01-01T03:51:06.678Z,49.11
2023-01-01T03:54:25.230Z,48.29
2023-01-01T03:57:44.909Z,48.62
2023-01-01T04:00:57.275Z,48.77
2023-01-01T04:04:04.461Z,48.98
2023-01-01T04:07:15.227Z,48.72
2023-01-01T04:10:19.863Z,48.48
2023-01-01T04:13:23.662Z,48.33
2023-01-01T04:16:27.027Z,48.55
2023-01-01T04:19:30.795Z,48.44
2023-01-01T04:22:35.840Z,48.70
2023-01-01T04:25:39.487Z,48.53
2023-01-01T04:28:44.204Z,48.63
2023-01-01T04:31:51.060Z,48.38
2023-01-01T04:34:54.370Z,48.56
2023-01-01T04:38:02.847Z,48.40
2023-01-01T04:41:06.963Z,48.12
2023-01-01T04:44:10.540Z,48.27
2023-01-01T04:47:13.918Z,48.03
2023-01-01T04:50:18.176Z,47.90
2023-01-01T04:53:22.845Z,47.75
2023-01-01T04:56:26.659Z,48.48
2023-01-01T04:59:31.111Z,47.73
2023-01-01T05:02:34.920Z,47.98
2023-01-01T05:05:38.293Z,47.60
2023-01-01T05:08:45.727Z,47.84
2023-01-01T05:11:49.275Z,48.02
2023-01-01T05:14:53.013Z,47.64
2023-01-01T05:17:56.283Z,48.20
2023-01-01T05:21:02.204Z,47.83
2023-01-01T05:24:09.418Z,48.04
2023-01-01T05:27:14.986Z,48.37
2023-01-01T05:30:18.938Z,48.43
2023-01-01T05:33:22.733Z,48.51
2023-01-01T05:36:29.789Z,48.06
2023-01-01T05:39:34.873Z,47.87
2023-01-01T05:42:38.154Z,48.35
2023-01-01T05:45:41.705Z,48.38
2023-01-01T05:48:45.870Z,48.35
2023-01-01T05:51:50.250Z,48.31
2023-01-01T05:54:55.060Z,48.08
2023-01-01T05:57:58.904Z,48.23
2023-01-01T06:01:09.599Z,48.27
2023-01-01T06:04:13.365Z,47.66
2023-01-01T06:07:16.755Z,47.67
2023-01-01T06:10:21.839Z,48.05
2023-01-01T06:13:25.163Z,47.60
2023-01-01T06:16:31.208Z,47.55
2023-01-01T06:19:34.839Z,48.18
2023-01-01T06:22:38.779Z,48.11
2023-01-01T06:25:43.605Z,47.79
2023-01-01T06:28:49.045Z,48.19
2023-01-01T06:31:52.472Z,48.44
2023-01-01T06:34:56.361Z,48.16
2023-01-01T06:38:01.102Z,48.95
2023-01-01T06:41:09.108Z,48.37
2023-01-01T06:44:12.379Z,49.01
2023-01-01T06:47:16.009Z,48.82
2023-01-01T06:50:19.604Z,49.24
2023-01-01T06:53:26.014Z,49.46
2023-01-01T06:56:31.354Z,49.01
2023-01-01T06:59:34.948Z,48.70
2023-01-01T07:02:38.273Z,48.98
2023-01-01T07:05:42.255Z,49.05
2023-01-01T07:08:45.634Z,49.31
2023-01-01T07:11:50.703Z,48.79
2023-01-01T07:14:53.921Z,48.73
2023-01-01T07:17:57.612Z,48.59
2023-01-01T07:21:03.747Z,48.87
2023-01-01T07:24:11.918Z,48.79
2023-01-01T07:27:16.457Z,48.18
2023-01-01T07:30:20.195Z,48.29
2023-01-01T07:33:25.566Z,48.51
2023-01-01T07:36:29.154Z,48.85
2023-01-01T07:39:32.423Z,48.27
2023-01-01T07:42:37.491Z,48.18
2023-01-01T07:45:41.546Z,48.78
2023-01-01T07:48:46.872Z,47.48
2023-01-01T07:51:50.077Z,47.87
2023-01-01T07:54:54.052Z,47.43
2023-01-01T07:57:58.724Z,47.36
2023-01-01T08:01:02.697Z,47.88
2023-01-01T08:04:06.732Z,46.77
2023-01-01T08:07:10.453Z,47.57
2023-01-01T08:10:13.865Z,47.48
2023-01-01T08:13:18.899Z,47.76
2023-01-01T08:16:22.146Z,47.83
2023-01-01T08:19:25.823Z,47.64
2023-01-01T08:22:29.232Z,47.87
2023-01-01T08:25:33.207Z,46.71
2023-01-01T08:28:37.792Z,47.38
2023-01-01T08:31:41.517Z,47.22
2023-01-01T08:34:44.988Z,47.11
2023-01-01T08:37:48.494Z,47.70
2023-01-01T08:40:51.723Z,47.21
2023-01-01T08:43:57.003Z,47.26
2023-01-01T08:47:00.346Z,47.09
2023-01-01T08:50:05.615Z,47.57
2023-01-01T08:53:08.860Z,47.79
2023-01-01T08:56:16.127Z,47.00
2023-01-01T08:59:20.730Z,47.35
2023-01-01T09:02:24.550Z,46.72
2023-01-01T09:05:28.701Z,47.14
2023-01-01T09:08:32.441Z,47.30
2023-01-01T09:11:36.455Z,46.98
2023-01-01T09:14:41.459Z,46.89
2023-01-01T09:17:44.672Z,46.76
2023-01-01T09:20:48.200Z,46.65
2023-01-01T09:23:51.356Z,46.54
2023-01-01T09:26:54.840Z,46.88
2023-01-01T09:29:59.854Z,46.26
2023-01-01T09:33:05.280Z,44.22
2023-01-01T09:36:27.221Z,43.23
2023-01-01T09:39:30.890Z,43.35
2023-01-01T09:42:44.677Z,44.84
2023-01-01T09:46:00.436Z,45.32
2023-01-01T09:49:12.852Z,45.94
2023-01-01T09:52:21.547Z,46.60
2023-01-01T09:55:31.568Z,46.33
2023-01-01T09:58:38.824Z,46.65
2023-01-01T10:01:55.633Z,46.74
2023-01-01T10:05:09.940Z,47.15
2023-01-01T10:08:32.827Z,47.00
2023-01-01T10:11:54.217Z,47.02
2023-01-01T10:15:13.315Z,47.39
2023-01-01T10:18:25.462Z,47.40
2023-01-01T10:21:34.965Z,48.12
2023-01-01T10:24:48.564Z,47.70
2023-01-01T10:28:00.060Z,47.56
2023-01-01T10:31:17.138Z,48.06
2023-01-01T10:34:26.573Z,48.33
2023-01-01T10:37:37.751Z,47.37
2023-01-01T10:40:41.359Z,47.84
2023-01-01T10:43:47.478Z,47.74
2023-01-01T10:46:59.176Z,48.17
2023-01-01T10:50:08.581Z,47.84
2023-01-01T10:53:25.623Z,47.84
2023-01-01T10:56:43.367Z,48.23
2023-01-01T10:59:53.937Z,48.40
2023-01-01T11:03:19.307Z,48.31
2023-01-01T11:06:28.130Z,48.23
2023-01-01T11:09:32.745Z,48.14
2023-01-01T11:13:04.409Z,48.22
2023-01-01T11:16:03.130Z,48.43
2023-01-01T11:19:09.578Z,48.35
2023-01-01T11:22:39.427Z,48.09
2023-01-01T11:26:00.051Z,48.06
2023-01-01T11:29:22.662Z,47.90
2023-01-01T11:32:36.179Z,48.24
2023-01-01T11:35:51.753Z,47.82
2023-01-01T11:39:21.300Z,47.77
2023-01-01T11:42:29.156Z,48.02
2023-01-01T11:45:41.177Z,47.91
2023-01-01T11:48:45.463Z,47.97
2023-01-01T11:51:48.868Z,48.39
2023-01-01T11:54:57.614Z,48.33
2023-01-01T11:58:19.207Z,48.24
2023-01-01T12:01:33.219Z,48.21
2023-01-01T12:04:48.181Z,46.54
2023-01-01T12:07:53.447Z,41.82
2023-01-01T12:11:10.211Z,41.39
2023-01-01T12:14:29.499Z,40.84
2023-01-01T12:17:42.376Z,41.17
2023-01-01T12:20:56.150Z,41.56
2023-01-01T12:23:59.625Z,41.91
2023-01-01T12:27:29.052Z,41.71
2023-01-01T12:30:44.127Z,42.53
2023-01-01T12:34:10.311Z,41.63
2023-01-01T12:37:28.773Z,41.80
2023-01-01T12:40:40.991Z,41.86
2023-01-01T12:44:02.196Z,41.60
2023-01-01T12:47:17.535Z,41.69
2023-01-01T12:50:37.257Z,41.48
2023-01-01T12:53:57.116Z,41.29
2023-01-01T12:57:09.797Z,41.48
2023-01-01T13:00:18.948Z,41.48
2023-01-01T13:03:31.458Z,40.91
2023-01-01T13:06:44.573Z,40.93
2023-01-01T13:09:49.006Z,41.07
2023-01-01T13:12:56.931Z,41.00
2023-01-01T13:16:01.995Z,41.82
2023-01-01T13:19:07.007Z,42.32
2023-01-01T13:22:43.070Z,42.15
2023-01-01T13:25:46.669Z,43.16
2023-01-01T13:29:48.277Z,43.45
2023-01-01T13:33:26.869Z,45.13
2023-01-01T13:36:33.940Z,46.50
2023-01-01T13:39:55.012Z,47.08
2023-01-01T13:43:34.984Z,48.61
2023-01-01T13:46:59.153Z,49.93
2023-01-01T13:50:21.704Z,51.12
2023-01-01T13:53:59.782Z,52.21
2023-01-01T13:57:25.188Z,54.03
2023-01-01T14:00:35.829Z,55.01
2023-01-01T14:03:45.868Z,55.86
2023-01-01T14:06:56.495Z,56.13
2023-01-01T14:10:28.975Z,54.80
2023-01-01T14:13:42.271Z,54.70
2023-01-01T14:16:45.807Z,54.58
2023-01-01T14:19:51.470Z,54.49
2023-01-01T14:22:56.329Z,53.87
2023-01-01T14:26:03.318Z,53.79
2023-01-01T14:29:10.629Z,54.74
2023-01-01T14:32:19.572Z,54.62
2023-01-01T14:35:22.942Z,54.95
2023-01-01T14:38:31.241Z,56.22
2023-01-01T14:41:38.666Z,56.03
2023-01-01T14:44:47.326Z,56.51
2023-01-01T14:47:54.550Z,55.35
2023-01-01T14:50:58.475Z,55.53
2023-01-01T14:54:06.294Z,56.35
2023-01-01T14:57:14.921Z,57.26
2023-01-01T15:00:24.724Z,57.17
2023-01-01T15:03:28.375Z,58.78
2023-01-01T15:06:33.827Z,58.81
2023-01-01T15:09:38.801Z,59.92
2023-01-01T15:12:43.026Z,61.27
2023-01-01T15:15:49.806Z,61.93
2023-01-01T15:18:57.171Z,62.89
2023-01-01T15:22:00.976Z,63.75
2023-01-01T15:25:14.020Z,64.11
2023-01-01T15:28:21.491Z,64.82
2023-01-01T15:31:35.310Z,64.21
2023-01-01T15:34:48.968Z,64.42
2023-01-01T15:37:58.363Z,63.79
2023-01-01T15:41:38.970Z,63.54
2023-01-01T15:44:42.641Z,64.39
2023-01-01T15:47:48.283Z,64.01
2023-01-01T15:51:07.006Z,63.27
2023-01-01T15:54:19.847Z,63.51
2023-01-01T15:57:25.444Z,63.85
2023-01-01T16:00:33.156Z,63.14
2023-01-01T16:03:40.038Z,63.06
2023-01-01T16:06:46.708Z,62.79
2023-01-01T16:09:57.339Z,62.70
2023-01-01T16:13:03.061Z,62.81
2023-01-01T16:16:25.294Z,62.19
2023-01-01T16:19:32.674Z,62.44
2023-01-01T16:22:36.860Z,62.00
2023-01-01T16:25:40.675Z,62.09
2023-01-01T16:28:45.346Z,62.10
2023-01-01T16:31:49.105Z,61.82
2023-01-01T16:34:52.584Z,61.97
2023-01-01T16:37:56.335Z,61.94
2023-01-01T16:40:59.629Z,61.75
2023-01-01T16:44:04.637Z,61.67
2023-01-01T16:47:08.259Z,61.56
2023-01-01T16:50:12.923Z,61.44
2023-01-01T16:53:16.250Z,61.69
2023-01-01T16:56:20.051Z,61.13
2023-01-01T16:59:24.969Z,61.65
2023-01-01T17:02:30.387Z,61.96
2023-01-01T17:05:42.233Z,62.37
2023-01-01T17:08:48.093Z,61.91
2023-01-01T17:11:51.561Z,62.07
2023-01-01T17:14:56.476Z,61.93
2023-01-01T17:18:00.303Z,62.19
2023-01-01T17:21:06.368Z,62.41
2023-01-01T17:24:09.812Z,62.43
2023-01-01T17:27:13.502Z,62.48
2023-01-01T17:30:18.305Z,62.24
2023-01-01T17:33:21.741Z,62.66
2023-01-01T17:36:27.099Z,62.62
2023-01-01T17:39:30.843Z,62.73
2023-01-01T17:42:35.990Z,62.04
2023-01-01T17:45:40.966Z,61.97
2023-01-01T17:48:46.470Z,61.75
2023-01-01T17:51:50.049Z,61.67
2023-01-01T17:54:53.364Z,61.72
2023-01-01T17:57:57.012Z,61.83
2023-01-01T18:01:27.973Z,61.19
2023-01-01T18:04:31.738Z,61.17
2023-01-01T18:07:35.048Z,60.98
2023-01-01T18:10:38.994Z,61.14
2023-01-01T18:13:42.471Z,60.61
2023-01-01T18:16:47.725Z,60.62
2023-01-01T18:19:51.014Z,60.58
2023-01-01T18:22:54.896Z,61.49
2023-01-01T18:26:01.995Z,61.88
2023-01-01T18:29:05.884Z,61.25
2023-01-01T18:32:10.906Z,61.25
2023-01-01T18:35:14.752Z,61.10
2023-01-01T18:38:20.527Z,60.72
2023-01-01T18:41:44.833Z,61.22
2023-01-01T18:44:48.311Z,61.19
2023-01-01T18:47:53.384Z,61.17
2023-01-01T18:50:58.288Z,60.85
2023-01-01T18:54:02.318Z,60.63
2023-01-01T18:57:22.446Z,60.55
2023-01-01T19:00:33.157Z,60.94
2023-01-01T19:03:41.532Z,60.69
2023-01-01T19:06:45.535Z,60.81
2023-01-01T19:09:51.553Z,61.44
2023-01-01T19:12:59.374Z,60.89
2023-01-01T19:16:22.410Z,60.86
2023-01-01T19:19:37.496Z,60.77
2023-01-01T19:22:40.737Z,61.19
2023-01-01T19:25:44.565Z,60.93
2023-01-01T19:28:53.136Z,61.44
2023-01-01T19:31:59.506Z,61.30
2023-01-01T19:35:04.378Z,62.09
2023-01-01T19:38:08.137Z,61.75
2023-01-01T19:41:12.512Z,61.34
2023-01-01T19:44:24.602Z,61.65
2023-01-01T19:47:28.335Z,61.45
2023-01-01T19:50:33.382Z,61.42
2023-01-01T19:53:36.858Z,62.12
2023-01-01T19:56:41.483Z,62.96
2023-01-01T19:59:44.665Z,63.77
2023-01-01T20:02:48.725Z,64.30
2023-01-01T20:05:56.085Z,64.06
2023-01-01T20:08:59.496Z,64.59
2023-01-01T20:12:02.766Z,64.18
2023-01-01T20:15:08.939Z,63.84
2023-01-01T20:18:12.305Z,63.85
2023-01-01T20:21:49.450Z,63.68
2023-01-01T20:24:52.648Z,63.31
2023-01-01T20:28:14.027Z,63.33
2023-01-01T20:31:17.305Z,63.24
2023-01-01T20:34:22.445Z,63.26
2023-01-01T20:37:39.284Z,63.46
2023-01-01T20:40:42.811Z,63.54
2023-01-01T20:43:46.017Z,63.14
2023-01-01T20:46:49.709Z,63.27
2023-01-01T20:49:52.930Z,63.29
2023-01-01T20:52:57.867Z,63.02
2023-01-01T20:56:01.235Z,63.21
2023-01-01T20:59:24.611Z,62.86
2023-01-01T21:02:29.789Z,62.87
2023-01-01T21:05:33.772Z,62.68
2023-01-01T21:08:38.367Z,62.67
2023-01-01T21:11:42.212Z,62.54
2023-01-01T21:14:45.521Z,62.34
2023-01-01T21:17:49.626Z,61.91
2023-01-01T21:20:52.894Z,61.67
2023-01-01T21:24:07.313Z,61.53
2023-01-01T21:27:15.840Z,61.88
2023-01-01T21:30:22.216Z,61.84
2023-01-01T21:33:29.112Z,61.66
2023-01-01T21:36:32.910Z,61.33
2023-01-01T21:39:37.556Z,60.94
2023-01-01T21:42:41.191Z,60.96
2023-01-01T21:45:48.267Z,60.77
2023-01-01T21:48:57.681Z,61.01
2023-01-01T21:52:02.445Z,61.30
2023-01-01T21:55:23.255Z,60.78
2023-01-01T21:58:51.436Z,61.44
2023-01-01T22:02:00.908Z,61.19
2023-01-01T22:05:30.842Z,61.39
2023-01-01T22:08:45.691Z,61.30
2023-01-01T22:11:53.306Z,61.72
2023-01-01T22:15:08.378Z,61.57
2023-01-01T22:18:25.253Z,61.45
2023-01-01T22:21:28.914Z,61.72
2023-01-01T22:24:36.372Z,62.05
2023-01-01T22:27:41.940Z,62.17
2023-01-01T22:30:45.378Z,62.07
2023-01-01T22:33:50.928Z,61.84
2023-01-01T22:36:55.046Z,62.92
2023-01-01T22:40:01.258Z,63.21
2023-01-01T22:43:12.478Z,63.49
2023-01-01T22:46:27.310Z,63.52
2023-01-01T22:49:39.037Z,63.61
2023-01-01T22:52:43.023Z,63.13
2023-01-01T22:55:46.276Z,63.13
2023-01-01T22:58:57.259Z,63.38
2023-01-01T23:02:00.994Z,63.36
2023-01-01T23:05:06.895Z,63.48
2023-01-01T23:08:10.163Z,63.25
2023-01-01T23:11:14.462Z,63.93
2023-01-01T23:14:39.179Z,63.92
2023-01-01T23:17:43.134Z,63.52
2023-01-01T23:20:46.352Z,63.55
2023-01-01T23:23:52.417Z,63.28
2023-01-01T23:26:55.740Z,63.70
2023-01-01T23:30:03.296Z,63.55
2023-01-01T23:33:07.196Z,63.75
2023-01-01T23:36:11.281Z,63.54
2023-01-01T23:39:14.475Z,63.68
2023-01-01T23:42:18.337Z,63.51
2023-01-01T23:45:23.062Z,63.60
2023-01-01T23:48:26.785Z,63.46
2023-01-01T23:51:30.079Z,63.58
2023-01-01T23:54:33.802Z,63.78
2023-01-01T23:57:37.169Z,63.57
